Clatskanie, Oregon
Current Conditions -  °F | °C
As of 1:55 AM on Tuesday 21 Oct 2014 (Local Time) from KKLS Reporting Station
Overcast Overcast  
Wind Chill: 55°   Ceiling: 6000
Heat Index: 55°   Visibility: 10mi
Dew Point: 48°   Wind: 10mph
Humidity: 77%   Direction: 150°SSE
Pressure: 29.89"   Gusts: 18mph
Location:  46.1°N, 123.21°W
Report Text: KKLS 210855Z AUTO 15009G16KT 10SM SCT050 OVC060 13/09 A2989 RMK AO1 52010
Loading
Personal Weather Stations






























Interactive Weather Map
Tropical Storm Tracking
New forecast layout! Learn more

10-Day Weather Forecast

Advertisements
Track Severe Weather on mobile